Time;durP1;ratioP1;P1;durP2;ratioP2;P2;SDS_P1;SDS_P2;PMS_P1;PMS_P2;Temp;Humidity;BMP_temperature;BMP_pressure;BME280_temperature;BME280_humidity;BME280_pressure;Samples;Min_cycle;Max_cycle;Signal;HPM_P1;HPM_P2
2022/12/27 00:01:42;;;;;;;3.83;1.52;;;;;;;6.61;45.93;101859.50;4988384;28;20065;-71
2022/12/27 00:04:10;;;;;;;3.60;1.80;;;;;;;6.61;45.93;101861.38;4985014;28;20501;-72
2022/12/27 00:06:40;;;;;;;3.33;1.60;;;;;;;6.61;45.92;101869.53;4984048;28;20065;-68
2022/12/27 00:09:08;;;;;;;5.30;1.67;;;;;;;6.60;46.08;101851.47;4988766;28;20529;-70
2022/12/27 00:11:36;;;;;;;3.80;1.70;;;;;;;6.59;45.83;101858.75;4984731;28;20055;-70
2022/12/27 00:14:06;;;;;;;3.78;1.63;;;;;;;6.60;45.48;101862.34;4979450;28;20050;-71
2022/12/27 00:16:34;;;;;;;3.90;1.65;;;;;;;6.59;45.99;101868.72;4984559;28;20080;-73
2022/12/27 00:19:03;;;;;;;3.75;1.70;;;;;;;6.58;45.53;101867.84;4984109;28;20061;-69
2022/12/27 00:21:32;;;;;;;3.47;1.58;;;;;;;6.58;45.63;101880.56;4989542;28;20540;-71
2022/12/27 00:24:00;;;;;;;4.00;1.60;;;;;;;6.57;45.68;101876.97;4987612;28;20046;-71
2022/12/27 00:26:31;;;;;;;3.08;1.70;;;;;;;6.57;45.45;101873.38;4988620;28;20046;-67
2022/12/27 00:28:59;;;;;;;7.15;2.10;;;;;;;6.55;45.55;101873.44;4988497;28;20038;-68
2022/12/27 00:31:30;;;;;;;6.95;2.22;;;;;;;6.56;45.76;101875.22;4989085;28;20129;-70
2022/12/27 00:34:01;;;;;;;3.97;1.98;;;;;;;6.55;45.85;101886.16;4986956;28;20530;-67
2022/12/27 00:36:31;;;;;;;4.55;2.10;;;;;;;6.54;45.94;101881.69;4987793;28;20046;-69
2022/12/27 00:38:59;;;;;;;5.82;1.98;;;;;;;6.53;45.99;101880.81;4989178;28;20034;-67
2022/12/27 00:41:27;;;;;;;3.88;1.70;;;;;;;6.53;45.95;101882.69;4981061;28;20408;-67
2022/12/27 00:43:55;;;;;;;5.30;2.17;;;;;;;6.52;46.22;101889.97;4984552;28;20423;-68
2022/12/27 00:46:23;;;;;;;4.47;1.92;;;;;;;6.52;45.78;101894.50;4982794;28;20055;-67
2022/12/27 00:48:54;;;;;;;6.05;2.03;;;;;;;6.53;45.91;101885.41;4974209;28;20122;-68
2022/12/27 00:51:24;;;;;;;4.65;1.92;;;;;;;6.53;46.09;101893.56;4984768;28;20045;-68
2022/12/27 00:53:53;;;;;;;4.28;2.10;;;;;;;6.52;45.80;101897.22;4986965;28;20076;-68
2022/12/27 00:56:23;;;;;;;3.80;1.92;;;;;;;6.52;46.16;101894.50;4985575;28;20046;-68
2022/12/27 00:58:53;;;;;;;6.45;2.08;;;;;;;6.51;45.96;101899.06;4984870;28;20452;-68
2022/12/27 01:01:22;;;;;;;5.40;1.85;;;;;;;6.51;45.97;101906.34;4985898;28;20114;-71
2022/12/27 01:03:50;;;;;;;4.50;1.70;;;;;;;6.49;46.22;101898.28;4981224;28;20133;-68
2022/12/27 01:06:23;;;;;;;5.53;1.80;;;;;;;6.50;46.02;101894.59;4982143;28;20504;-70
2022/12/27 01:08:51;;;;;;;4.53;2.00;;;;;;;6.47;46.27;101907.47;4988117;28;20132;-71
2022/12/27 01:11:19;;;;;;;4.70;1.98;;;;;;;6.48;45.96;101903.78;4986557;28;20042;-70
2022/12/27 01:13:48;;;;;;;3.22;1.60;;;;;;;6.46;46.04;101903.88;4984591;28;20427;-68
2022/12/27 01:16:18;;;;;;;4.80;1.90;;;;;;;6.47;45.62;101899.31;4986124;28;20543;-69
2022/12/27 01:18:47;;;;;;;3.65;1.83;;;;;;;6.45;45.86;101896.66;4984787;28;20085;-67
2022/12/27 01:21:20;;;;;;;5.53;2.10;;;;;;;6.45;45.82;101899.38;4982758;28;20046;-69
2022/12/27 01:23:50;;;;;;;4.85;1.77;;;;;;;6.42;46.14;101902.28;4987893;28;20050;-68
2022/12/27 01:26:19;;;;;;;6.95;1.77;;;;;;;6.42;45.84;101902.28;4987327;28;20049;-71
2022/12/27 01:28:48;;;;;;;5.10;1.60;;;;;;;6.41;45.87;101900.53;4982779;28;20479;-68
2022/12/27 01:31:18;;;;;;;4.20;1.98;;;;;;;6.40;46.08;101904.19;4985174;28;20074;-71
2022/12/27 01:33:46;;;;;;;3.17;1.42;;;;;;;6.39;45.86;101905.16;4986097;28;20050;-69
2022/12/27 01:36:19;;;;;;;3.83;1.75;;;;;;;6.38;46.03;101911.56;4985814;28;20050;-68
2022/12/27 01:38:49;;;;;;;3.85;1.60;;;;;;;6.36;46.14;101916.22;4987285;28;20039;-68
2022/12/27 01:44:49;;;;;;;3.50;1.80;;;;;;;6.35;45.66;101925.31;4986236;28;20078;-68
2022/12/27 01:47:24;;;;;;;5.68;2.03;;;;;;;6.32;46.12;101923.66;4963079;28;20186;-68
2022/12/27 01:50:06;;;;;;;3.28;1.40;;;;;;;6.34;46.07;101932.59;4981926;28;20089;-69
2022/12/27 01:52:41;;;;;;;3.70;1.50;;;;;;;6.32;45.81;101933.63;4987361;28;20133;-71
2022/12/27 01:55:20;;;;;;;4.20;1.58;;;;;;;6.32;45.78;101934.50;4986770;28;20042;-71
2022/12/27 01:57:50;;;;;;;4.05;1.45;;;;;;;6.30;46.09;101939.16;4983793;28;20427;-70
2022/12/27 02:00:19;;;;;;;3.58;1.20;;;;;;;6.30;46.20;101943.72;4984562;28;20418;-67
2022/12/27 02:02:48;;;;;;;5.03;1.67;;;;;;;6.29;46.42;101950.09;4986690;28;20046;-67
2022/12/27 02:05:19;;;;;;;4.25;1.40;;;;;;;6.29;46.51;101940.09;4980301;28;20085;-68
2022/12/27 02:07:58;;;;;;;4.15;1.67;;;;;;;6.30;46.38;101940.97;4982294;28;20069;-70
2022/12/27 02:10:28;;;;;;;4.47;1.50;;;;;;;6.27;46.48;101946.59;4986179;28;20078;-69
2022/12/27 02:12:58;;;;;;;2.83;1.52;;;;;;;6.28;46.26;101948.38;4981225;28;20049;-68
2022/12/27 02:15:25;;;;;;;5.82;1.60;;;;;;;6.27;46.15;101947.50;4982574;28;20712;-67
2022/12/27 02:17:53;;;;;;;4.72;1.63;;;;;;;6.25;46.34;101949.41;4985132;28;20043;-69
2022/12/27 02:20:24;;;;;;;4.15;1.60;;;;;;;6.27;46.38;101952.94;4989023;23;20054;-72
2022/12/27 02:26:32;;;;;;;5.18;1.75;;;;;;;6.24;46.12;101955.78;4977352;28;20066;-71
2022/12/27 02:29:15;;;;;;;;;;;;;;;5.98;46.78;101957.13;4966682;28;20074;-71
2022/12/27 02:31:52;;;;;;;3.97;1.40;;;;;;;6.19;46.67;101957.00;4990897;28;19925;-71
2022/12/27 02:34:24;;;;;;;5.65;1.40;;;;;;;6.21;46.93;101949.63;4989526;28;20054;-71
2022/12/27 02:36:59;;;;;;;5.40;1.85;;;;;;;6.21;46.67;101958.66;4986041;28;20047;-71
2022/12/27 02:39:28;;;;;;;5.38;1.80;;;;;;;6.20;46.94;101956.88;4979107;28;20047;-72
2022/12/27 02:53:10;;;;;;;3.45;1.23;;;;;;;6.18;46.79;101947.09;4977405;28;20057;-72
2022/12/27 02:58:56;;;;;;;5.43;1.50;;;;;;;6.16;46.75;101954.44;4989152;28;20519;-72
2022/12/27 03:04:37;;;;;;;3.33;1.38;;;;;;;6.15;46.57;101952.66;4990589;28;20057;-72
2022/12/27 03:07:26;;;;;;;4.38;1.42;;;;;;;6.11;46.27;101957.41;4988963;28;20365;-72
2022/12/27 03:16:18;;;;;;;3.88;1.40;;;;;;;6.09;46.59;101969.28;4981642;28;20084;-72
2022/12/27 03:19:08;;;;;;;2.95;1.30;;;;;;;6.06;46.66;101964.88;4986318;28;20075;-72
2022/12/27 03:27:17;;;;;;;2.67;1.52;;;;;;;6.01;47.16;101964.25;4977406;28;20050;-72
2022/12/27 03:35:35;;;;;;;3.17;1.13;;;;;;;6.00;46.81;101976.97;4989456;28;20169;-73
2022/12/27 03:38:04;;;;;;;3.38;1.30;;;;;;;5.99;46.96;101983.34;4989010;28;20133;-72
2022/12/27 03:43:09;;;;;;;5.55;1.75;;;;;;;6.02;46.99;101991.34;4989983;28;20089;-72
2022/12/27 03:43:27;;;;;;;3.53;1.35;;;;;;;5.97;46.93;101977.09;4986761;28;20038;-73
2022/12/27 03:49:06;;;;;;;4.20;1.38;;;;;;;5.99;46.71;101979.75;4984271;28;20478;-72
2022/12/27 03:51:40;;;;;;;3.53;1.35;;;;;;;5.99;46.78;101985.19;4978914;28;20042;-72
2022/12/27 03:54:15;;;;;;;5.43;1.30;;;;;;;5.98;46.92;101976.16;4987146;28;20448;-72
2022/12/27 03:56:43;;;;;;;3.53;1.40;;;;;;;5.96;46.78;101978.06;4988356;28;20150;-72
2022/12/27 03:59:12;;;;;;;3.00;1.30;;;;;;;5.97;47.13;101979.81;4975523;28;20545;-72
2022/12/27 04:01:41;;;;;;;3.70;1.25;;;;;;;5.96;47.11;101979.88;4987292;28;20050;-72
2022/12/27 04:04:09;;;;;;;3.22;1.38;;;;;;;5.96;47.27;101979.88;4981185;28;20116;-72
2022/12/27 04:06:38;;;;;;;4.07;1.50;;;;;;;5.96;47.30;101980.78;4980470;28;20050;-72
2022/12/27 04:36:43;;;;;;;4.43;1.65;;;;;;;5.90;47.40;101978.38;4985512;28;20495;-72
2022/12/27 04:39:13;;;;;;;4.43;1.50;;;;;;;5.94;47.45;101970.97;4987416;28;20038;-73
2022/12/27 04:55:30;;;;;;;3.70;1.42;;;;;;;5.95;47.92;101976.28;4987658;28;20407;-73
2022/12/27 04:57:59;;;;;;;5.25;1.52;;;;;;;5.96;47.84;101978.06;4985719;28;20038;-72
2022/12/27 05:03:18;;;;;;;3.92;1.45;;;;;;;6.00;47.63;101997.81;4988395;28;20376;-74
2022/12/27 05:05:47;;;;;;;4.90;1.98;;;;;;;6.01;47.77;102003.19;4981396;28;20050;-73
2022/12/27 05:13:59;;;;;;;5.25;1.50;;;;;;;6.03;47.96;102017.59;4984713;28;20077;-73
2022/12/27 05:16:28;;;;;;;5.35;1.85;;;;;;;6.04;47.64;102015.72;4984032;28;20057;-72
2022/12/27 05:18:56;;;;;;;4.43;1.70;;;;;;;6.07;47.99;102026.44;4982494;28;20055;-73
2022/12/27 05:21:24;;;;;;;3.58;1.60;;;;;;;6.09;47.89;102027.25;4983891;28;20034;-73
2022/12/27 05:26:39;;;;;;;7.03;1.80;;;;;;;6.12;47.72;102034.38;4987765;28;20628;-73
2022/12/27 05:29:08;;;;;;;5.97;1.75;;;;;;;6.12;47.96;102031.66;4987324;28;20523;-72
2022/12/27 05:31:36;;;;;;;5.85;2.45;;;;;;;6.12;47.95;102028.94;4987403;28;20084;-72
2022/12/27 05:34:05;;;;;;;5.03;1.95;;;;;;;6.14;47.90;102029.72;4985895;28;20046;-72
2022/12/27 05:36:33;;;;;;;5.13;2.30;;;;;;;6.14;48.26;102038.75;4986566;28;20081;-72
2022/12/27 05:39:01;;;;;;;7.57;2.15;;;;;;;6.15;47.57;102037.81;4986526;28;20053;-72
2022/12/27 05:41:29;;;;;;;5.35;2.05;;;;;;;6.15;47.60;102039.63;4987139;28;20047;-72
2022/12/27 05:43:59;;;;;;;3.65;1.67;;;;;;;6.18;47.70;102050.38;4984182;28;20038;-72
2022/12/27 05:46:34;;;;;;;5.32;1.70;;;;;;;6.16;47.83;102028.69;4986564;28;20679;-72
2022/12/27 05:49:02;;;;;;;5.55;1.90;;;;;;;6.16;47.50;102038.69;4980648;28;20054;-72
2022/12/27 05:51:30;;;;;;;4.72;1.98;;;;;;;6.16;47.79;102036.84;4974801;28;20051;-73
2022/12/27 05:53:58;;;;;;;4.05;1.58;;;;;;;6.16;47.40;102041.41;4986927;28;20412;-71
2022/12/27 05:56:26;;;;;;;3.28;1.70;;;;;;;6.16;47.57;102049.56;4987765;28;20403;-71
2022/12/27 05:58:54;;;;;;;4.35;1.63;;;;;;;6.16;47.86;102058.59;4986819;28;20554;-71
2022/12/27 06:01:23;;;;;;;3.83;1.60;;;;;;;6.15;47.39;102054.13;4990201;28;20046;-71
2022/12/27 06:03:51;;;;;;;3.40;1.45;;;;;;;6.14;47.80;102048.75;4989917;28;20132;-71
2022/12/27 06:06:19;;;;;;;3.58;1.40;;;;;;;6.15;47.43;102064.09;4988933;28;20496;-71
2022/12/27 06:08:47;;;;;;;6.55;1.58;;;;;;;6.14;47.92;102051.47;4988503;28;20041;-72
2022/12/27 06:11:17;;;;;;;4.05;1.65;;;;;;;6.14;47.55;102055.06;4991873;28;20053;-71
2022/12/27 06:13:49;;;;;;;4.43;1.50;;;;;;;6.16;47.47;102063.16;4989698;28;20038;-72
2022/12/27 06:16:17;;;;;;;4.25;1.60;;;;;;;6.11;47.72;102055.25;4989744;28;20046;-72
2022/12/27 06:18:47;;;;;;;4.30;1.50;;;;;;;6.14;47.79;102073.22;4986071;28;20046;-72
2022/12/27 06:21:17;;;;;;;4.68;1.77;;;;;;;6.11;47.59;102066.13;4981544;28;20442;-71
2022/12/27 06:23:45;;;;;;;3.70;1.70;;;;;;;6.11;47.87;102071.56;4990065;28;20062;-71
2022/12/27 06:26:15;;;;;;;4.25;1.42;;;;;;;6.11;47.52;102066.13;4989592;28;20038;-71
2022/12/27 06:28:43;;;;;;;6.03;2.10;;;;;;;6.08;47.72;102068.97;4977740;28;20459;-71
2022/12/27 06:31:11;;;;;;;4.22;1.55;;;;;;;6.09;47.71;102078.00;4990475;28;20128;-71
2022/12/27 06:33:39;;;;;;;4.60;1.58;;;;;;;6.07;47.79;102075.38;4990867;28;20696;-71
2022/12/27 06:36:11;;;;;;;3.47;1.30;;;;;;;6.08;47.83;102079.84;4988452;28;20050;-71
2022/12/27 06:38:40;;;;;;;3.17;1.38;;;;;;;6.07;47.85;102086.22;4990357;28;20101;-71
2022/12/27 06:41:10;;;;;;;3.03;1.30;;;;;;;6.07;47.89;102094.38;4989543;28;20385;-71
2022/12/27 06:43:39;;;;;;;5.60;1.42;;;;;;;6.06;47.85;102087.19;4987970;28;20526;-71
2022/12/27 06:46:10;;;;;;;3.00;1.45;;;;;;;6.05;47.93;102091.75;4990266;28;20518;-72
2022/12/27 06:48:45;;;;;;;4.28;1.40;;;;;;;6.04;47.50;102089.97;4990328;28;20077;-72
2022/12/27 06:51:17;;;;;;;3.53;1.55;;;;;;;6.06;47.73;102087.19;4990665;28;20038;-71
2022/12/27 06:53:46;;;;;;;3.67;1.50;;;;;;;6.02;47.79;102096.47;4989756;28;20066;-72
2022/12/27 06:56:18;;;;;;;4.15;1.40;;;;;;;6.04;47.99;102089.97;4988271;28;20049;-71
2022/12/27 06:58:46;;;;;;;3.80;1.60;;;;;;;6.01;47.91;102100.13;4988777;28;20054;-71
2022/12/27 07:01:17;;;;;;;5.75;1.60;;;;;;;6.03;48.12;102092.78;4990288;28;20042;-71
2022/12/27 07:03:49;;;;;;;3.53;1.38;;;;;;;6.02;48.04;102083.75;4989724;28;20101;-71
2022/12/27 07:06:19;;;;;;;4.55;1.33;;;;;;;6.03;48.00;102090.06;4984022;28;20047;-71
2022/12/27 07:08:48;;;;;;;5.82;1.45;;;;;;;6.00;47.97;102087.50;4988940;28;20053;-71
2022/12/27 07:11:17;;;;;;;3.25;1.23;;;;;;;6.00;48.07;102092.94;4988188;28;20097;-71
2022/12/27 07:13:47;;;;;;;4.65;1.40;;;;;;;5.98;47.57;102093.00;4988212;28;20510;-72
2022/12/27 07:16:17;;;;;;;5.25;1.23;;;;;;;5.98;47.81;102109.31;4989391;28;20400;-71
2022/12/27 07:18:45;;;;;;;4.57;1.50;;;;;;;5.96;48.23;102105.78;4986140;28;20094;-72
2022/12/27 07:21:20;;;;;;;3.47;1.53;;;;;;;5.96;48.04;102110.31;4984824;28;20133;-71
2022/12/27 07:23:49;;;;;;;3.55;1.50;;;;;;;5.96;47.81;102121.19;4988358;28;20303;-71
2022/12/27 07:26:19;;;;;;;6.60;1.48;;;;;;;5.97;47.91;102120.25;4989410;28;20038;-71
2022/12/27 07:28:47;;;;;;;4.90;1.92;;;;;;;5.95;48.00;102127.59;4975814;28;20372;-71
2022/12/27 07:31:17;;;;;;;3.00;1.23;;;;;;;5.95;47.84;102128.47;4990650;28;20443;-71
2022/12/27 07:33:46;;;;;;;4.85;1.50;;;;;;;5.94;48.05;102129.44;4988463;28;20062;-71
2022/12/27 07:36:17;;;;;;;4.97;1.52;;;;;;;5.94;47.76;102126.72;4986830;28;20572;-71
2022/12/27 07:38:46;;;;;;;3.05;1.40;;;;;;;5.94;47.97;102139.44;4989051;28;20046;-71
2022/12/27 07:41:15;;;;;;;3.30;1.42;;;;;;;5.92;48.08;102139.50;4988525;28;20108;-71
2022/12/27 07:43:43;;;;;;;4.65;1.63;;;;;;;5.92;48.02;102133.19;4986089;28;20038;-71
2022/12/27 07:46:13;;;;;;;4.13;1.42;;;;;;;5.91;47.92;102134.13;4985488;28;20455;-72
2022/12/27 07:48:41;;;;;;;3.35;1.40;;;;;;;5.92;48.07;102141.31;4983759;28;20145;-72
2022/12/27 07:51:10;;;;;;;4.30;1.50;;;;;;;5.91;48.44;102140.44;5002567;28;20050;-72
2022/12/27 07:53:38;;;;;;;3.72;1.45;;;;;;;5.91;48.13;102136.84;4987728;28;20042;-72
2022/12/27 07:56:11;;;;;;;4.40;1.67;;;;;;;5.92;48.28;102146.75;4987584;28;20043;-72
2022/12/27 07:58:40;;;;;;;4.65;1.38;;;;;;;5.90;48.57;102154.09;4989031;28;20066;-72
2022/12/27 08:01:08;;;;;;;3.63;1.48;;;;;;;5.90;48.57;102146.84;4986375;28;20433;-72
2022/12/27 08:03:37;;;;;;;2.85;1.30;;;;;;;5.91;48.45;102158.59;4987395;28;20046;-71
2022/12/27 08:06:06;;;;;;;2.63;1.10;;;;;;;5.92;48.35;102152.19;4982656;28;20054;-68
2022/12/27 08:08:38;;;;;;;3.85;1.50;;;;;;;5.94;48.68;102161.16;4983620;28;20539;-68
2022/12/27 08:11:08;;;;;;;5.80;1.60;;;;;;;5.91;48.49;102158.59;4987612;28;20125;-68
2022/12/27 08:13:36;;;;;;;4.13;1.70;;;;;;;5.93;48.64;102162.13;4983860;28;20042;-72
2022/12/27 08:16:05;;;;;;;3.78;1.30;;;;;;;5.94;48.68;102169.31;4985816;28;20055;-71
2022/12/27 08:18:32;;;;;;;3.47;1.38;;;;;;;5.94;48.42;102161.16;4977057;28;20050;-72
2022/12/27 08:21:00;;;;;;;4.05;1.40;;;;;;;5.94;48.55;102162.06;5006443;23;20129;-81
2022/12/27 08:23:28;;;;;;;4.18;1.40;;;;;;;5.95;48.67;102171.94;4986900;28;20054;-80
2022/12/27 08:25:57;;;;;;;4.55;1.65;;;;;;;5.95;48.69;102162.94;4976916;28;20034;-80
2022/12/27 08:28:30;;;;;;;4.55;1.52;;;;;;;5.96;48.67;102167.38;4988588;28;20102;-81
2022/12/27 08:30:59;;;;;;;4.25;1.50;;;;;;;5.94;48.55;102164.78;4987709;28;20070;-81
2022/12/27 08:33:27;;;;;;;4.80;1.40;;;;;;;5.96;48.47;102165.56;4988148;28;20066;-80
2022/12/27 08:35:57;;;;;;;5.72;1.80;;;;;;;5.96;48.75;102170.97;4980783;28;20481;-81
2022/12/27 08:38:25;;;;;;;3.97;1.60;;;;;;;5.96;48.61;102168.25;4987699;28;20049;-80
2022/12/27 08:40:53;;;;;;;4.50;1.55;;;;;;;5.95;48.72;102163.78;4989391;28;20101;-81
2022/12/27 08:43:21;;;;;;;4.20;1.50;;;;;;;5.96;48.43;102175.53;4990259;28;20054;-81
2022/12/27 08:45:50;;;;;;;7.60;1.80;;;;;;;5.97;48.37;102167.31;4995244;28;20137;-82
2022/12/27 08:48:18;;;;;;;4.70;1.50;;;;;;;5.97;48.63;102169.16;4995196;28;20046;-80
2022/12/27 08:50:46;;;;;;;4.10;1.65;;;;;;;5.96;48.32;102180.97;4991337;28;20547;-81
2022/12/27 08:53:14;;;;;;;7.45;1.65;;;;;;;5.98;48.74;102173.63;4983252;28;20050;-81
2022/12/27 08:55:41;;;;;;;5.25;1.55;;;;;;;5.99;48.61;102168.13;4992304;28;20347;-81
2022/12/27 08:58:11;;;;;;;5.63;1.60;;;;;;;6.03;48.85;102174.31;4992812;28;20100;-81
2022/12/27 09:00:43;;;;;;;2.25;1.38;;;;;;;6.04;48.80;102168.78;4990443;28;20050;-82
2022/12/27 09:03:12;;;;;;;3.90;1.60;;;;;;;6.10;48.97;102169.47;4989826;28;20141;-81
2022/12/27 09:05:40;;;;;;;4.68;1.48;;;;;;;6.14;48.91;102176.50;5006204;28;20129;-80
2022/12/27 09:08:09;;;;;;;3.85;1.42;;;;;;;6.18;49.10;102172.69;4991942;28;20202;-81
2022/12/27 09:10:38;;;;;;;3.78;1.52;;;;;;;6.22;49.10;102174.28;4989930;28;20042;-81
2022/12/27 09:13:05;;;;;;;3.92;1.35;;;;;;;6.28;49.11;102174.03;4991949;28;20401;-80
2022/12/27 09:15:33;;;;;;;3.78;1.48;;;;;;;6.33;48.93;102178.25;4989920;28;20078;-81
2022/12/27 09:18:01;;;;;;;4.88;1.38;;;;;;;6.39;49.10;102183.41;4986560;28;20069;-79
2022/12/27 09:20:31;;;;;;;4.20;1.50;;;;;;;6.47;48.97;102190.28;4980946;28;20047;-79
2022/12/27 09:22:59;;;;;;;4.28;1.35;;;;;;;6.50;48.83;102184.72;5007863;28;20405;-80
2022/12/27 09:25:27;;;;;;;5.00;1.42;;;;;;;6.54;49.15;102187.19;4990915;28;20046;-80
2022/12/27 09:27:55;;;;;;;3.92;1.33;;;;;;;6.60;48.74;102186.03;4994268;28;20046;-79
2022/12/27 09:30:23;;;;;;;3.58;1.55;;;;;;;6.66;49.29;102186.59;4999716;28;20050;-79
2022/12/27 09:32:50;;;;;;;4.25;1.48;;;;;;;6.73;49.07;102193.47;5004283;28;20038;-78
2022/12/27 09:35:18;;;;;;;4.78;1.50;;;;;;;6.79;48.94;102197.75;4990922;28;20069;-79
2022/12/27 09:37:48;;;;;;;3.22;1.38;;;;;;;6.87;49.25;102189.19;4994912;28;20107;-81
2022/12/27 09:40:19;;;;;;;4.18;1.50;;;;;;;6.93;49.26;102188.91;4999842;28;20114;-76
2022/12/27 09:42:55;;;;;;;3.88;1.30;;;;;;;7.01;48.57;102190.28;5013575;28;20109;-78
2022/12/27 09:45:48;;;;;;;4.00;1.40;;;;;;;7.07;48.99;102194.50;4992031;28;20050;-79
2022/12/27 09:48:24;;;;;;;4.13;1.25;;;;;;;7.12;48.91;102187.84;4987438;28;20046;-77
2022/12/27 09:51:05;;;;;;;3.00;1.25;;;;;;;7.20;49.13;102177.44;4990904;28;20521;-78
2022/12/27 09:53:44;;;;;;;3.42;1.33;;;;;;;7.29;48.34;102181.53;4994052;28;20105;-77
2022/12/27 09:56:14;;;;;;;3.13;1.67;;;;;;;7.35;49.01;102183.06;4987567;28;20058;-76
2022/12/27 09:58:46;;;;;;;3.70;1.40;;;;;;;7.43;48.52;102178.09;4988842;28;20521;-78
2022/12/27 10:01:22;;;;;;;3.10;1.40;;;;;;;7.48;48.17;102176.00;4988330;28;20058;-77
2022/12/27 10:03:51;;;;;;;5.13;1.45;;;;;;;7.53;48.63;102177.50;4990641;28;20126;-78
2022/12/27 10:06:42;;;;;;;4.13;1.57;;;;;;;7.61;48.24;102170.75;4986641;28;20454;-78
2022/12/27 10:09:31;;;;;;;4.88;1.42;;;;;;;7.67;48.03;102167.72;4984411;28;20834;-81
2022/12/27 10:12:08;;;;;;;3.63;1.60;;;;;;;7.71;48.27;102172.00;4989176;28;20123;-79
2022/12/27 10:14:57;;;;;;;5.10;1.38;;;;;;;7.78;47.72;102174.31;4989436;28;20073;-77
2022/12/27 10:17:42;;;;;;;3.03;1.33;;;;;;;7.82;47.84;102180.50;4992147;28;20112;-77
2022/12/27 10:20:26;;;;;;;6.03;1.30;;;;;;;7.87;47.76;102170.19;4986509;28;20356;-78
2022/12/27 10:22:59;;;;;;;3.97;1.42;;;;;;;7.91;47.91;102175.41;4990819;28;20046;-77
2022/12/27 10:25:37;;;;;;;4.28;1.30;;;;;;;7.96;47.93;102169.69;4982949;28;20427;-79
2022/12/27 10:28:14;;;;;;;7.43;1.60;;;;;;;8.00;47.54;102168.56;4987634;28;20054;-78
2022/12/27 10:30:43;;;;;;;3.88;1.58;;;;;;;8.05;48.50;102176.47;4989611;28;20419;-80
2022/12/27 10:33:20;;;;;;;6.82;1.65;;;;;;;8.11;47.34;102170.66;4984292;28;20034;-81
2022/12/27 10:35:48;;;;;;;3.50;1.40;;;;;;;8.14;48.10;102167.81;4986056;28;20066;-80
2022/12/27 10:38:16;;;;;;;3.63;1.58;;;;;;;8.18;48.03;102164.81;4987331;28;20042;-81
2022/12/27 10:40:54;;;;;;;4.07;1.58;;;;;;;8.23;47.44;102168.19;4981068;28;20038;-81
2022/12/27 10:43:28;;;;;;;3.88;1.50;;;;;;;8.26;47.60;102175.28;4987902;28;20043;-78
2022/12/27 10:46:11;;;;;;;3.58;1.70;;;;;;;8.29;46.99;102172.38;4988149;28;20097;-81
2022/12/27 10:48:40;;;;;;;4.85;1.50;;;;;;;8.32;48.08;102173.09;4989152;28;20256;-80
2022/12/27 10:51:35;;;;;;;3.63;1.63;;;;;;;8.38;47.41;102174.59;4990134;28;20047;-81
2022/12/27 10:54:05;;;;;;;3.63;1.55;;;;;;;8.41;47.83;102177.16;4994149;28;20096;-79
2022/12/27 10:56:37;;;;;;;4.13;1.30;;;;;;;8.44;47.62;102184.25;4991312;28;20042;-78
2022/12/27 10:59:12;;;;;;;3.95;1.75;;;;;;;8.46;46.92;102172.31;4987851;28;20493;-79
2022/12/27 11:01:42;;;;;;;4.32;1.65;;;;;;;8.48;47.50;102173.09;4987285;28;20096;-80
2022/12/27 11:04:12;;;;;;;4.03;1.35;;;;;;;8.53;47.49;102173.69;4992991;28;20073;-77
2022/12/27 11:06:50;;;;;;;3.20;1.70;;;;;;;8.55;48.07;102176.34;4985465;28;20493;-77
2022/12/27 11:09:27;;;;;;;5.53;1.42;;;;;;;8.59;47.57;102173.34;4999166;28;20054;-77
2022/12/27 11:12:17;;;;;;;2.90;1.40;;;;;;;8.63;46.84;102182.22;4991981;28;20525;-78
2022/12/27 11:14:57;;;;;;;4.75;1.50;;;;;;;8.67;46.81;102175.66;4986730;28;20258;-79
2022/12/27 11:17:28;;;;;;;3.00;1.23;;;;;;;8.70;47.48;102172.72;4992808;28;20042;-79
2022/12/27 11:19:57;;;;;;;3.97;1.50;;;;;;;8.75;47.63;102167.88;4995383;28;20062;-81
2022/12/27 11:22:26;;;;;;;3.05;1.10;;;;;;;8.76;47.11;102176.91;4989757;28;20046;-80
2022/12/27 11:24:57;;;;;;;3.85;1.50;;;;;;;8.79;46.92;102172.16;4992959;28;20038;-81
2022/12/27 11:27:29;;;;;;;2.85;1.27;;;;;;;8.80;46.71;102163.03;4992886;28;20489;-79
2022/12/27 11:29:58;;;;;;;4.25;1.40;;;;;;;8.82;47.13;102171.13;4991222;28;20045;-79
2022/12/27 11:32:27;;;;;;;4.05;1.30;;;;;;;8.81;47.01;102164.78;4990613;28;20060;-77
2022/12/27 11:34:56;;;;;;;3.75;1.63;;;;;;;8.84;46.91;102174.63;4983741;28;20042;-80
2022/12/27 11:37:27;;;;;;;3.65;1.70;;;;;;;8.85;46.97;102182.72;4992914;28;20046;-79
2022/12/27 11:40:10;;;;;;;4.07;1.40;;;;;;;8.86;46.90;102179.03;4990668;28;20046;-80
2022/12/27 11:42:44;;;;;;;4.15;1.30;;;;;;;8.87;46.13;102175.31;4987600;28;20050;-79
2022/12/27 11:45:20;;;;;;;2.85;1.33;;;;;;;8.87;46.68;102177.19;4990709;28;20133;-79
2022/12/27 11:47:53;;;;;;;2.33;1.20;;;;;;;8.85;46.65;102170.91;4988630;28;20109;-79
2022/12/27 11:50:39;;;;;;;3.30;1.40;;;;;;;8.84;46.01;102172.75;4988929;28;20113;-81
2022/12/27 11:53:17;;;;;;;3.00;1.30;;;;;;;8.83;46.34;102160.13;4993489;28;20547;-82
2022/12/27 11:56:21;;;;;;;3.67;1.35;;;;;;;8.81;46.08;102178.44;4993321;28;20575;-82
2022/12/27 11:59:17;;;;;;;3.53;1.50;;;;;;;8.77;46.05;102176.84;4987439;28;20050;-81
2022/12/27 12:02:16;;;;;;;2.63;1.15;;;;;;;8.78;45.62;102175.88;5005483;28;20042;-82
2022/12/27 12:05:15;;;;;;;3.03;1.45;;;;;;;8.78;46.15;102166.81;4966500;28;20531;-81
2022/12/27 12:08:00;;;;;;;3.33;1.17;;;;;;;8.78;45.96;102173.13;4993193;28;20052;-81
2022/12/27 12:10:43;;;;;;;2.20;1.02;;;;;;;8.78;46.39;102175.00;4993358;28;20062;-82
2022/12/27 12:13:33;;;;;;;3.63;1.45;;;;;;;8.74;45.80;102173.44;4985984;28;20050;-82
2022/12/27 12:16:23;;;;;;;2.88;1.08;;;;;;;8.72;45.61;102159.88;4992389;28;20052;-80
2022/12/27 12:19:07;;;;;;;2.53;1.25;;;;;;;8.71;45.83;102152.66;4989715;28;20069;-81
2022/12/27 12:21:47;;;;;;;3.83;1.67;;;;;;;8.70;45.78;102159.06;4990314;28;20046;-80
2022/12/27 12:24:34;;;;;;;3.33;1.40;;;;;;;8.68;45.57;102145.50;4987327;28;20436;-80
2022/12/27 12:27:26;;;;;;;4.10;1.63;;;;;;;8.65;45.94;102147.56;4990396;28;20050;-79
2022/12/27 12:30:12;;;;;;;4.10;1.40;;;;;;;8.62;45.85;102145.88;4989774;28;20133;-80
2022/12/27 12:33:04;;;;;;;4.68;1.20;;;;;;;8.62;45.50;102145.00;4999589;28;20031;-79
2022/12/27 12:35:55;;;;;;;2.27;1.10;;;;;;;8.56;45.91;102137.19;4984897;28;20444;-80
2022/12/27 12:38:27;;;;;;;2.35;1.08;;;;;;;8.56;46.49;102142.63;4984749;28;20406;-80
2022/12/27 12:41:19;;;;;;;3.63;1.17;;;;;;;8.54;46.06;102139.13;4992025;28;20038;-79
2022/12/27 12:44:16;;;;;;;2.10;1.17;;;;;;;8.52;45.49;102133.75;4993526;28;20097;-81
2022/12/27 12:46:54;;;;;;;4.00;1.20;;;;;;;8.50;46.20;102135.69;4950185;28;20351;-81
2022/12/27 12:49:37;;;;;;;3.20;1.20;;;;;;;8.51;45.94;102137.44;4992348;28;20512;-80
2022/12/27 12:52:31;;;;;;;3.80;1.15;;;;;;;8.46;45.98;102130.50;4993999;28;20077;-79
2022/12/27 12:55:19;;;;;;;2.70;1.17;;;;;;;8.46;46.16;102135.94;4992333;28;20742;-79
2022/12/27 12:58:05;;;;;;;3.83;1.25;;;;;;;8.47;46.22;102127.69;5005005;28;20145;-78
2022/12/27 13:00:57;;;;;;;4.60;1.48;;;;;;;8.45;46.42;102118.69;5003897;28;20130;-80
2022/12/27 13:03:55;;;;;;;3.67;1.35;;;;;;;8.44;46.31;102106.03;4984893;28;20417;-79
2022/12/27 13:06:47;;;;;;;3.70;1.20;;;;;;;8.44;46.10;102113.31;4990717;28;20042;-80
2022/12/27 13:09:28;;;;;;;4.53;1.65;;;;;;;8.44;46.88;102110.59;4992567;28;20053;-79
2022/12/27 13:12:03;;;;;;;2.92;1.40;;;;;;;8.43;46.48;102108.84;4993496;28;20051;-80
2022/12/27 13:14:53;;;;;;;3.10;1.38;;;;;;;8.44;46.28;102094.22;4991963;28;20098;-80
2022/12/27 13:17:30;;;;;;;3.45;1.23;;;;;;;8.42;46.62;102096.19;4980788;28;20049;-80
2022/12/27 13:20:12;;;;;;;2.35;1.30;;;;;;;8.42;46.15;102080.72;4984812;28;20472;-80
2022/12/27 13:22:53;;;;;;;3.70;1.20;;;;;;;8.41;46.64;102073.50;4987932;28;20073;-80
2022/12/27 13:25:37;;;;;;;2.92;1.33;;;;;;;8.41;46.56;102068.03;4992252;28;20473;-79
2022/12/27 13:28:23;;;;;;;2.85;1.13;;;;;;;8.41;46.36;102069.88;4989550;28;20585;-80
2022/12/27 13:30:57;;;;;;;4.22;1.50;;;;;;;8.41;46.73;102061.69;4989876;28;20096;-79
2022/12/27 13:33:35;;;;;;;4.57;1.25;;;;;;;8.41;46.54;102050.78;4989954;28;20046;-79
2022/12/27 13:36:14;;;;;;;3.10;1.40;;;;;;;8.41;46.26;102057.13;4993574;28;20054;-80
2022/12/27 13:38:57;;;;;;;5.03;1.50;;;;;;;8.40;46.12;102058.09;4995795;28;20137;-81
2022/12/27 13:41:32;;;;;;;;;;;;;;;8.12;47.07;102050.63;4994728;28;20614;-80